Time;durP1;ratioP1;P1;durP2;ratioP2;P2;SDS_P1;SDS_P2;PMS_P1;PMS_P2;Temp;Humidity;BMP_temperature;BMP_pressure;BME280_temperature;BME280_humidity;BME280_pressure;Samples;Min_cycle;Max_cycle;Signal;HPM_P1;HPM_P2
2024/01/13 00:00:16;;;;;;;1.43;1.33;;;;;;;2.20;55.68;95563.38;5134439;27;20434;-54
2024/01/13 00:02:45;;;;;;;1.13;1.07;;;;;;;2.37;55.61;95560.03;5130489;27;20442;-55
2024/01/13 00:05:15;;;;;;;2.20;1.10;;;;;;;2.45;55.55;95565.00;5124306;27;20808;-54
2024/01/13 00:07:43;;;;;;;0.60;0.50;;;;;;;2.08;61.09;95567.66;5134191;27;20441;-54
2024/01/13 00:10:12;;;;;;;1.10;1.03;;;;;;;1.97;56.68;95563.13;5134321;27;20466;-53
2024/01/13 00:12:41;;;;;;;4.57;1.00;;;;;;;1.75;57.44;95565.22;5133462;27;20446;-54
2024/01/13 00:15:10;;;;;;;1.57;1.43;;;;;;;0.99;57.50;95520.72;5133664;27;20549;-53
2024/01/13 00:17:39;;;;;;;1.00;0.90;;;;;;;1.46;57.88;95584.03;5134006;27;20905;-54
2024/01/13 00:20:09;;;;;;;2.30;1.40;;;;;;;1.43;57.68;95585.25;5134116;27;20438;-54
2024/01/13 00:22:47;;;;;;;1.70;1.60;;;;;;;0.95;58.77;95578.72;5134118;27;20434;-54
2024/01/13 00:25:16;;;;;;;2.00;1.90;;;;;;;1.23;61.00;95584.50;5133396;27;20445;-54
2024/01/13 00:27:44;;;;;;;1.60;0.77;;;;;;;0.24;58.84;95406.53;5134038;27;20466;-54
2024/01/13 00:30:14;;;;;;;0.80;0.73;;;;;;;1.37;58.55;95598.34;5133386;27;20804;-54
2024/01/13 00:32:43;;;;;;;1.47;1.37;;;;;;;1.50;58.75;95595.66;5134270;27;20430;-54
2024/01/13 00:35:12;;;;;;;3.23;1.00;;;;;;;1.04;58.75;95591.34;5133547;27;20470;-54
2024/01/13 00:37:42;;;;;;;0.60;0.60;;;;;;;1.01;58.71;95576.09;5133899;27;20491;-54
2024/01/13 00:40:12;;;;;;;1.40;1.23;;;;;;;1.07;58.74;95590.97;5132612;27;20449;-54
2024/01/13 00:42:42;;;;;;;3.03;1.20;;;;;;;1.20;59.78;95585.72;5133951;27;21155;-54
2024/01/13 00:45:12;;;;;;;2.30;1.40;;;;;;;1.47;58.42;95575.22;5133382;27;20438;-54
2024/01/13 00:47:42;;;;;;;2.17;1.07;;;;;;;1.53;58.56;95590.03;5133857;27;20922;-54
2024/01/13 00:50:11;;;;;;;1.47;1.33;;;;;;;1.20;58.61;95536.13;5133069;27;20435;-54
2024/01/13 00:52:42;;;;;;;1.43;1.17;;;;;;;1.40;58.27;95571.78;5134001;27;20481;-54
2024/01/13 00:55:11;;;;;;;0.50;0.50;;;;;;;1.38;58.77;95574.63;5132732;27;20526;-54
2024/01/13 00:57:39;;;;;;;1.00;0.70;;;;;;;1.43;58.37;95576.59;5132714;27;20525;-54
2024/01/13 01:00:10;;;;;;;2.60;1.50;;;;;;;1.40;58.66;95563.97;5133521;27;20529;-54
2024/01/13 01:02:39;;;;;;;0.93;0.90;;;;;;;1.53;58.34;95561.31;5133164;27;20439;-54
2024/01/13 01:05:08;;;;;;;7.30;1.47;;;;;;;1.67;59.53;95560.25;5133905;27;20493;-54
2024/01/13 01:07:37;;;;;;;2.60;2.03;;;;;;;1.32;58.92;95579.88;5133788;27;20443;-54
2024/01/13 01:10:07;;;;;;;1.60;1.50;;;;;;;1.21;59.73;95581.31;5133161;27;20470;-54
2024/01/13 01:12:36;;;;;;;2.10;1.57;;;;;;;1.12;59.21;95577.28;5133238;27;20814;-53
2024/01/13 01:15:06;;;;;;;2.20;1.03;;;;;;;1.43;59.59;95582.63;5132943;27;20562;-54
2024/01/13 01:17:35;;;;;;;2.13;1.10;;;;;;;1.65;58.70;95575.31;5133093;27;20435;-54
2024/01/13 01:20:04;;;;;;;2.00;1.30;;;;;;;1.42;58.83;95575.81;5133367;27;20801;-54
2024/01/13 01:22:32;;;;;;;0.97;0.53;;;;;;;1.66;57.80;95579.53;5132672;27;20828;-54
2024/01/13 01:25:01;;;;;;;1.20;1.20;;;;;;;1.65;58.58;95565.66;5133434;27;20431;-54
2024/01/13 01:27:31;;;;;;;1.50;0.87;;;;;;;1.43;58.61;95561.75;5132644;27;20467;-54
2024/01/13 01:29:59;;;;;;;2.97;0.87;;;;;;;1.73;59.38;95560.22;5132994;27;20498;-54
2024/01/13 01:32:28;;;;;;;1.33;1.13;;;;;;;1.32;58.63;95556.38;5133335;27;20447;-54
2024/01/13 01:34:57;;;;;;;4.20;1.30;;;;;;;1.19;59.23;95552.78;5132192;27;20501;-54
2024/01/13 01:37:26;;;;;;;2.10;1.70;;;;;;;0.93;59.05;95541.59;5132502;27;20435;-54
2024/01/13 01:39:54;;;;;;;2.30;0.90;;;;;;;0.62;59.70;95540.44;5132717;27;20434;-55
2024/01/13 01:42:23;;;;;;;1.67;1.23;;;;;;;1.13;59.42;95537.94;5132128;27;20430;-54
2024/01/13 01:44:53;;;;;;;0.30;0.23;;;;;;;1.25;59.33;95540.72;5132362;27;20478;-54
2024/01/13 01:47:22;;;;;;;0.60;0.33;;;;;;;1.35;58.41;95537.66;5133181;27;20438;-55
2024/01/13 01:49:51;;;;;;;1.20;1.10;;;;;;;0.95;58.32;95461.31;5132518;27;20430;-55
2024/01/13 01:52:20;;;;;;;1.13;1.13;;;;;;;1.23;58.92;95538.31;5132510;27;20466;-54
2024/01/13 01:54:49;;;;;;;1.23;1.13;;;;;;;0.99;59.55;95544.19;5131492;27;20534;-54
2024/01/13 01:57:22;;;;;;;5.33;2.03;;;;;;;1.07;59.99;95546.59;5132618;27;20845;-54
2024/01/13 01:59:52;;;;;;;2.43;2.33;;;;;;;0.72;61.61;95518.34;5132004;27;20431;-54
2024/01/13 02:02:21;;;;;;;9.80;3.87;;;;;;;0.99;60.83;95557.25;5132321;27;20441;-54
2024/01/13 02:04:50;;;;;;;2.60;1.07;;;;;;;0.54;62.05;95501.53;5105559;28;20922;-54
2024/01/13 02:07:20;;;;;;;0.73;0.73;;;;;;;0.66;60.71;95566.91;5131769;27;20950;-54
2024/01/13 02:09:49;;;;;;;2.30;0.90;;;;;;;0.90;66.31;95558.47;5132095;28;20445;-55
2024/01/13 02:12:17;;;;;;;0.97;0.97;;;;;;;0.85;62.68;95529.59;5131627;28;20446;-54
2024/01/13 02:14:46;;;;;;;1.23;1.13;;;;;;;1.15;62.03;95559.41;5132750;27;20603;-54
2024/01/13 02:17:16;;;;;;;9.07;1.00;;;;;;;0.25;60.70;95485.53;5131999;28;20439;-54
2024/01/13 02:19:45;;;;;;;1.60;1.50;;;;;;;0.56;61.26;95543.03;5132517;28;20999;-54
2024/01/13 02:22:15;;;;;;;2.07;1.80;;;;;;;0.88;62.79;95544.03;5132604;28;20495;-54
2024/01/13 02:24:44;;;;;;;0.60;0.60;;;;;;;0.85;60.01;95545.22;5131790;27;20443;-54
2024/01/13 02:27:12;;;;;;;1.07;1.07;;;;;;;0.74;60.68;95539.81;5131837;28;20438;-54
2024/01/13 02:29:41;;;;;;;0.90;0.90;;;;;;;0.36;60.93;95521.38;5132263;27;20445;-55
2024/01/13 02:32:10;;;;;;;1.53;1.43;;;;;;;-0.58;61.82;95307.19;5131571;27;20438;-55
2024/01/13 02:34:38;;;;;;;2.83;1.63;;;;;;;0.48;60.76;95533.63;5131567;27;21041;-54
2024/01/13 02:37:07;;;;;;;7.13;1.30;;;;;;;0.79;60.53;95530.38;5131793;28;20468;-54
2024/01/13 02:39:37;;;;;;;0.40;0.30;;;;;;;1.04;60.06;95533.13;5132029;28;20438;-54
2024/01/13 02:42:06;;;;;;;1.27;1.17;;;;;;;0.77;59.97;95536.81;5132544;27;20435;-54
2024/01/13 02:44:35;;;;;;;0.80;0.80;;;;;;;0.52;60.04;95507.97;5131363;27;20449;-55
2024/01/13 02:47:04;;;;;;;0.70;0.70;;;;;;;0.76;59.92;95536.00;5132184;27;20438;-55
2024/01/13 02:49:32;;;;;;;2.83;0.40;;;;;;;0.55;62.58;95533.63;5131011;27;20539;-54
2024/01/13 02:52:01;;;;;;;0.60;0.50;;;;;;;0.60;60.05;95520.78;5129950;27;20438;-55
2024/01/13 02:54:30;;;;;;;1.80;1.10;;;;;;;0.78;59.85;95538.41;5132194;27;20518;-55
2024/01/13 02:57:00;;;;;;;3.77;1.53;;;;;;;0.74;59.46;95522.38;5135547;27;20438;-54
2024/01/13 02:59:29;;;;;;;1.63;0.90;;;;;;;0.76;59.67;95516.97;5135198;27;20460;-54
2024/01/13 03:01:57;;;;;;;2.30;0.97;;;;;;;0.95;58.76;95524.75;5135589;27;20434;-54
2024/01/13 03:04:26;;;;;;;1.23;1.23;;;;;;;0.71;59.20;95529.81;5134775;27;20477;-55
2024/01/13 03:06:54;;;;;;;1.00;0.70;;;;;;;0.29;60.57;95539.66;5135146;27;20437;-55
2024/01/13 03:09:23;;;;;;;7.00;1.03;;;;;;;0.38;62.09;95540.25;5134245;27;20935;-56
2024/01/13 03:11:52;;;;;;;0.73;0.73;;;;;;;0.45;60.03;95515.00;5135821;27;20430;-55
2024/01/13 03:14:22;;;;;;;1.80;0.40;;;;;;;0.21;59.83;95499.94;5135061;27;20522;-55
2024/01/13 03:16:50;;;;;;;0.93;0.80;;;;;;;0.45;61.27;95534.03;5135229;27;20441;-55
2024/01/13 03:19:19;;;;;;;10.63;1.07;;;;;;;0.00;61.11;95493.13;5135361;27;20881;-56
2024/01/13 03:21:48;;;;;;;1.57;0.97;;;;;;;0.22;63.05;95545.84;5135180;27;20898;-56
2024/01/13 03:24:16;;;;;;;2.67;1.50;;;;;;;0.21;61.04;95536.41;5108341;27;20435;-56
2024/01/13 03:26:45;;;;;;;1.53;1.43;;;;;;;-0.10;61.62;95539.59;5134784;27;20435;-55
2024/01/13 03:29:14;;;;;;;4.20;2.87;;;;;;;-0.20;61.83;95523.53;5135397;27;20453;-56
2024/01/13 03:31:44;;;;;;;7.10;1.20;;;;;;;-0.29;61.96;95545.56;5135159;27;20607;-56
2024/01/13 03:34:13;;;;;;;2.40;1.53;;;;;;;-0.32;63.08;95546.75;5135460;27;20858;-55
2024/01/13 03:36:41;;;;;;;3.20;1.80;;;;;;;-0.51;62.94;95547.50;5134452;27;20481;-56
2024/01/13 03:39:10;;;;;;;7.40;1.40;;;;;;;-0.39;63.54;95543.34;5134342;27;20449;-54
2024/01/13 03:41:39;;;;;;;2.23;1.00;;;;;;;-1.04;63.16;95455.44;5121134;27;20523;-55
2024/01/13 03:44:07;;;;;;;1.47;1.37;;;;;;;-0.54;62.55;95544.47;5134262;27;20586;-55
2024/01/13 03:46:36;;;;;;;1.60;1.50;;;;;;;-0.63;62.83;95496.22;5134230;27;21462;-55
2024/01/13 03:49:06;;;;;;;0.77;0.77;;;;;;;-0.68;62.47;95494.97;5124507;27;20806;-55
2024/01/13 03:51:35;;;;;;;1.87;1.10;;;;;;;-0.44;62.73;95548.34;5131468;27;20466;-55
2024/01/13 03:54:04;;;;;;;1.47;1.40;;;;;;;-0.37;62.69;95533.53;5134343;27;20474;-55
2024/01/13 03:56:34;;;;;;;1.13;0.50;;;;;;;-0.21;62.17;95546.19;5134373;27;20478;-55
2024/01/13 03:59:04;;;;;;;1.13;0.50;;;;;;;-0.03;61.98;95554.22;5134311;27;20464;-55
2024/01/13 04:01:32;;;;;;;0.53;0.50;;;;;;;0.09;61.53;95554.47;5134053;27;20434;-55
2024/01/13 04:04:01;;;;;;;1.30;1.00;;;;;;;-0.01;61.53;95554.84;5134314;27;20442;-55
2024/01/13 04:06:32;;;;;;;0.57;0.57;;;;;;;-0.40;61.65;95470.63;5133347;27;20438;-55
2024/01/13 04:09:01;;;;;;;1.60;1.50;;;;;;;-0.21;61.29;95509.75;5133621;27;20491;-55
2024/01/13 04:11:29;;;;;;;4.47;1.63;;;;;;;-0.06;61.73;95526.00;5133249;27;20509;-55
2024/01/13 04:13:58;;;;;;;2.27;2.00;;;;;;;0.45;60.60;95559.31;5133685;27;20951;-55
2024/01/13 04:16:27;;;;;;;5.30;1.10;;;;;;;0.71;60.84;95556.66;5133279;27;20474;-55
2024/01/13 04:18:55;;;;;;;1.03;1.03;;;;;;;0.33;61.15;95555.72;5133637;27;20437;-55
2024/01/13 04:21:24;;;;;;;6.33;1.57;;;;;;;0.14;60.90;95488.72;5133963;27;20434;-55
2024/01/13 04:23:54;;;;;;;1.47;1.37;;;;;;;0.04;62.23;95545.63;5133312;27;20469;-56
2024/01/13 04:26:27;;;;;;;3.27;1.80;;;;;;;-0.16;62.44;95540.41;5133878;27;20989;-55
2024/01/13 04:28:55;;;;;;;3.23;0.77;;;;;;;-0.04;63.02;95564.88;5133378;27;20439;-54
2024/01/13 04:31:24;;;;;;;2.00;1.90;;;;;;;0.26;61.88;95544.44;5133990;27;20915;-55
2024/01/13 04:33:53;;;;;;;1.03;1.03;;;;;;;0.49;61.84;95556.09;5134291;27;20431;-55
2024/01/13 04:36:21;;;;;;;1.40;1.13;;;;;;;0.42;61.76;95564.91;5133951;27;20985;-56
2024/01/13 04:38:51;;;;;;;0.70;0.70;;;;;;;0.17;61.32;95512.59;5133944;27;20496;-55
2024/01/13 04:41:21;;;;;;;2.37;1.90;;;;;;;0.25;61.23;95564.53;5133340;27;20442;-55
2024/01/13 04:43:49;;;;;;;0.93;0.80;;;;;;;0.41;61.18;95560.69;5134013;27;20465;-55
2024/01/13 04:46:18;;;;;;;0.60;0.60;;;;;;;0.28;60.98;95538.03;5133700;27;20454;-56
2024/01/13 04:48:47;;;;;;;2.17;1.47;;;;;;;0.45;61.34;95565.34;5133497;27;20446;-56
2024/01/13 04:51:16;;;;;;;1.23;1.17;;;;;;;0.06;62.05;95569.69;5132628;27;20526;-56
2024/01/13 04:53:45;;;;;;;2.53;1.00;;;;;;;0.15;61.82;95573.72;5133408;27;20474;-56
2024/01/13 04:56:15;;;;;;;1.20;1.10;;;;;;;0.14;61.99;95574.72;5132757;27;20471;-56
2024/01/13 04:58:46;;;;;;;0.77;0.77;;;;;;;0.22;61.99;95574.53;5133415;27;20443;-56
2024/01/13 05:01:14;;;;;;;3.83;1.53;;;;;;;0.13;62.08;95562.69;5133003;27;20439;-56
2024/01/13 05:03:43;;;;;;;1.33;1.23;;;;;;;-0.34;61.47;95511.50;5133233;27;20481;-56
2024/01/13 05:06:12;;;;;;;0.70;0.70;;;;;;;-0.06;62.13;95604.16;5132672;27;20430;-55
2024/01/13 05:08:41;;;;;;;2.37;0.53;;;;;;;-0.32;62.89;95613.66;5133405;27;20448;-56
2024/01/13 05:11:10;;;;;;;1.33;1.33;;;;;;;-0.84;63.93;95609.00;5132439;27;20514;-55
2024/01/13 05:13:38;;;;;;;3.73;0.90;;;;;;;-1.62;65.75;95565.84;5133183;27;20439;-55
2024/01/13 05:16:09;;;;;;;1.37;1.27;;;;;;;-1.15;66.44;95634.59;5132891;27;20466;-55
2024/01/13 05:18:37;;;;;;;4.93;2.50;;;;;;;-1.36;66.57;95635.44;5132004;27;20445;-55
2024/01/13 05:21:06;;;;;;;1.60;1.50;;;;;;;-1.73;66.96;95592.38;5133041;27;20449;-56
2024/01/13 05:23:35;;;;;;;2.03;1.83;;;;;;;-1.69;67.17;95564.19;5132048;27;20453;-56
2024/01/13 05:26:04;;;;;;;4.43;3.63;;;;;;;-1.40;67.04;95629.03;5132231;27;20961;-55
2024/01/13 05:28:32;;;;;;;2.10;1.67;;;;;;;-1.62;67.41;95610.03;5130815;27;20786;-56
2024/01/13 05:31:01;;;;;;;2.53;1.80;;;;;;;-1.86;67.78;95557.66;5131258;27;20984;-55
2024/01/13 05:33:34;;;;;;;2.73;2.63;;;;;;;-1.87;67.42;95499.69;5132327;27;20481;-56
2024/01/13 05:36:03;;;;;;;2.17;1.50;;;;;;;-0.74;66.09;95625.09;5107038;27;20496;-56
2024/01/13 05:38:35;;;;;;;2.30;2.20;;;;;;;-0.52;65.26;95621.38;5132267;27;20523;-56
2024/01/13 05:41:03;;;;;;;2.57;1.50;;;;;;;-0.27;64.11;95617.28;5132611;27;20517;-56
2024/01/13 05:43:32;;;;;;;6.23;2.43;;;;;;;-0.70;64.10;95613.28;5132266;27;20601;-56
2024/01/13 05:46:01;;;;;;;1.50;1.40;;;;;;;-1.18;64.90;95552.56;5132273;27;20450;-57
2024/01/13 05:48:34;;;;;;;3.27;2.73;;;;;;;-0.88;65.32;95628.59;5131755;27;20521;-56
2024/01/13 05:51:02;;;;;;;1.90;1.80;;;;;;;-0.58;64.98;95629.97;5132469;27;20466;-56
2024/01/13 05:53:31;;;;;;;0.93;0.93;;;;;;;-0.39;64.16;95597.22;5131689;27;20525;-56
2024/01/13 05:56:00;;;;;;;2.90;1.60;;;;;;;-0.35;64.08;95598.41;5132017;27;20442;-56
2024/01/13 05:58:29;;;;;;;1.60;1.50;;;;;;;-0.97;63.70;95497.06;5132133;27;20441;-55
2024/01/13 06:00:58;;;;;;;1.53;1.43;;;;;;;-0.14;63.43;95609.53;5132112;27;20499;-55
2024/01/13 06:03:27;;;;;;;1.73;1.23;;;;;;;-0.41;63.35;95568.78;5131134;27;20438;-55
2024/01/13 06:05:57;;;;;;;1.80;1.70;;;;;;;-0.13;63.78;95615.53;5129807;27;20462;-55
2024/01/13 06:08:26;;;;;;;4.53;2.47;;;;;;;-0.56;63.75;95562.09;5104404;28;20487;-55
2024/01/13 06:10:54;;;;;;;4.83;2.07;;;;;;;-0.03;63.45;95608.16;5117698;27;20431;-56
2024/01/13 06:13:23;;;;;;;8.47;2.57;;;;;;;-0.07;63.07;95619.97;5099418;28;20435;-55
2024/01/13 06:15:51;;;;;;;1.90;1.47;;;;;;;-0.05;63.14;95628.38;5111317;28;20431;-55
2024/01/13 06:18:20;;;;;;;3.40;1.87;;;;;;;-0.10;63.66;95642.00;5119347;28;20477;-55
2024/01/13 06:20:49;;;;;;;3.70;2.43;;;;;;;-0.07;63.31;95622.56;5132259;27;20438;-55
2024/01/13 06:23:19;;;;;;;2.33;1.27;;;;;;;0.11;63.14;95641.06;5131991;28;20437;-55
2024/01/13 06:25:48;;;;;;;2.97;1.60;;;;;;;0.08;63.13;95640.66;5131503;28;20526;-54
2024/01/13 06:28:17;;;;;;;16.07;1.60;;;;;;;0.00;61.88;95639.81;5132684;27;20445;-55
2024/01/13 06:30:45;;;;;;;2.80;2.53;;;;;;;-0.06;62.77;95639.81;5135912;27;20495;-55
2024/01/13 06:33:14;;;;;;;7.70;3.13;;;;;;;0.37;62.13;95661.19;5136121;27;20434;-54
2024/01/13 06:35:43;;;;;;;1.70;1.60;;;;;;;0.43;61.53;95639.53;5136230;27;20802;-54
2024/01/13 06:38:12;;;;;;;2.70;1.87;;;;;;;1.08;59.54;95663.03;5135781;27;20481;-54
2024/01/13 06:40:42;;;;;;;5.50;3.33;;;;;;;0.88;59.67;95667.47;5136018;27;20998;-54
2024/01/13 06:43:11;;;;;;;7.20;1.90;;;;;;;1.04;59.00;95653.19;5133616;27;20438;-55
2024/01/13 06:45:40;;;;;;;5.50;3.50;;;;;;;0.81;58.50;95622.28;5134476;27;20922;-54
2024/01/13 06:48:09;;;;;;;5.00;3.87;;;;;;;1.42;57.92;95672.44;5136117;27;20441;-53
2024/01/13 06:50:38;;;;;;;1.40;1.20;;;;;;;1.93;56.31;95670.69;5134277;27;20433;-54
2024/01/13 06:53:18;;;;;;;1.70;1.40;;;;;;;2.36;55.26;95670.91;5135198;27;20557;-54
2024/01/13 06:55:48;;;;;;;3.97;1.10;;;;;;;2.53;54.43;95660.72;5135769;27;20472;-55
2024/01/13 06:58:18;;;;;;;4.00;1.07;;;;;;;2.85;53.53;95653.69;5135424;27;20476;-54
2024/01/13 07:00:46;;;;;;;4.60;2.03;;;;;;;3.17;52.20;95653.41;5135616;27;21009;-54
2024/01/13 07:03:15;;;;;;;1.00;0.90;;;;;;;3.40;51.98;95623.19;5135520;27;20442;-54
2024/01/13 07:05:44;;;;;;;4.60;1.23;;;;;;;4.13;51.10;95652.81;5136000;27;20430;-53
2024/01/13 07:08:14;;;;;;;2.10;2.00;;;;;;;4.53;50.79;95653.88;5134478;27;20426;-54
2024/01/13 07:10:42;;;;;;;2.83;1.57;;;;;;;4.94;49.73;95643.41;5134742;27;20449;-54
2024/01/13 07:13:12;;;;;;;1.50;1.43;;;;;;;5.10;49.12;95655.06;5134185;27;20434;-54
2024/01/13 07:15:41;;;;;;;1.07;0.77;;;;;;;4.60;47.91;95633.63;5135537;27;20438;-54
2024/01/13 07:18:10;;;;;;;1.63;1.53;;;;;;;5.12;47.98;95658.25;5135519;27;20525;-55
2024/01/13 07:20:38;;;;;;;2.30;0.90;;;;;;;5.22;47.49;95652.44;5135365;27;20469;-55
2024/01/13 07:23:07;;;;;;;0.50;0.40;;;;;;;5.84;46.01;95629.91;5135316;27;20445;-55
2024/01/13 07:25:36;;;;;;;1.07;1.07;;;;;;;6.22;46.09;95644.13;5123181;27;20481;-55
2024/01/13 07:28:05;;;;;;;0.70;0.50;;;;;;;6.39;45.88;95647.63;5135304;27;20426;-55
2024/01/13 07:30:36;;;;;;;0.40;0.33;;;;;;;6.81;44.14;95647.31;5134938;27;20434;-54
2024/01/13 07:33:05;;;;;;;4.03;1.30;;;;;;;6.57;43.74;95645.84;5134992;27;20446;-55
2024/01/13 07:35:36;;;;;;;0.83;0.83;;;;;;;5.97;43.62;95567.31;5134558;27;20518;-56
2024/01/13 07:38:06;;;;;;;0.90;0.90;;;;;;;5.98;44.22;95647.88;5134195;27;20509;-55
2024/01/13 07:40:35;;;;;;;0.53;0.53;;;;;;;7.56;45.87;95645.13;5134042;27;20950;-55
2024/01/13 07:43:04;;;;;;;1.17;1.10;;;;;;;7.47;43.18;95625.44;5134789;27;20939;-55
2024/01/13 07:45:32;;;;;;;0.50;0.50;;;;;;;7.06;42.71;95626.66;5134517;27;20809;-56
2024/01/13 07:48:05;;;;;;;1.23;1.17;;;;;;;7.66;41.37;95638.13;5134559;27;20435;-56
2024/01/13 07:50:34;;;;;;;1.63;1.40;;;;;;;7.62;41.57;95642.28;5135107;27;20442;-56
2024/01/13 07:53:03;;;;;;;1.23;0.90;;;;;;;7.46;42.07;95637.84;5134699;27;20494;-57
2024/01/13 07:55:33;;;;;;;1.23;1.03;;;;;;;6.87;42.27;95601.59;5134879;27;20434;-56
2024/01/13 07:58:02;;;;;;;0.50;0.50;;;;;;;7.75;42.30;95633.22;5133677;27;20462;-55
2024/01/13 08:00:30;;;;;;;0.90;0.53;;;;;;;8.22;42.60;95642.28;5133727;27;20491;-54
2024/01/13 08:02:59;;;;;;;0.50;0.50;;;;;;;8.43;42.94;95632.78;5134063;27;20463;-55
2024/01/13 08:05:29;;;;;;;0.40;0.30;;;;;;;8.32;40.82;95602.03;5134232;27;20943;-54
2024/01/13 08:08:01;;;;;;;1.77;0.87;;;;;;;8.92;41.90;95597.34;5134643;27;20503;-53
2024/01/13 08:10:30;;;;;;;2.80;0.40;;;;;;;8.71;38.85;95618.53;5133448;27;20430;-54
2024/01/13 08:13:00;;;;;;;1.23;0.70;;;;;;;9.28;38.93;95610.84;5134500;27;20445;-52
2024/01/13 08:15:29;;;;;;;8.13;0.53;;;;;;;9.25;39.37;95574.31;5134034;27;20442;-53
2024/01/13 08:17:58;;;;;;;2.00;1.90;;;;;;;10.53;37.39;95609.91;5133903;27;20498;-53
2024/01/13 08:20:30;;;;;;;0.97;0.97;;;;;;;10.64;36.66;95563.81;5134250;27;20956;-53
2024/01/13 08:22:59;;;;;;;1.70;1.13;;;;;;;10.24;36.60;95558.44;5134163;27;20436;-53
2024/01/13 08:25:30;;;;;;;0.70;0.70;;;;;;;9.83;36.94;95602.44;5133950;27;20435;-54
2024/01/13 08:27:59;;;;;;;7.63;2.00;;;;;;;9.64;37.07;95606.59;5134225;27;20426;-54
2024/01/13 08:30:27;;;;;;;1.07;1.00;;;;;;;9.85;37.00;95547.41;5133868;27;20430;-55
2024/01/13 08:32:56;;;;;;;5.50;0.93;;;;;;;10.33;36.19;95601.88;5133419;27;20538;-55
2024/01/13 08:35:25;;;;;;;2.73;1.17;;;;;;;11.51;35.10;95599.91;5127671;27;20440;-52
2024/01/13 08:37:56;;;;;;;1.97;1.87;;;;;;;10.75;44.37;95595.34;5133029;27;20933;-55
2024/01/13 08:40:25;;;;;;;12.57;1.27;;;;;;;10.83;37.74;95548.97;5133636;27;20435;-56
2024/01/13 08:42:53;;;;;;;1.47;1.37;;;;;;;11.54;43.28;95602.00;5133431;27;20457;-56
2024/01/13 08:45:29;;;;;;;2.20;1.37;;;;;;;12.49;46.48;95604.41;5132693;27;20435;-56
2024/01/13 08:47:58;;;;;;;1.10;0.90;;;;;;;12.42;40.14;95601.22;5133300;27;20895;-57
2024/01/13 08:50:27;;;;;;;2.10;1.90;;;;;;;13.19;35.10;95592.53;5133465;27;20458;-59
2024/01/13 08:52:57;;;;;;;1.47;1.47;;;;;;;12.94;37.17;95496.09;5123713;27;20460;-58
2024/01/13 08:55:26;;;;;;;5.60;1.33;;;;;;;12.99;34.66;95584.66;5130296;27;20877;-60
2024/01/13 08:57:55;;;;;;;0.77;0.60;;;;;;;13.14;34.41;95587.25;5133873;27;20923;-61
2024/01/13 09:00:25;;;;;;;1.47;1.37;;;;;;;13.45;32.94;95579.78;5133363;27;20430;-61
2024/01/13 09:02:53;;;;;;;0.77;0.77;;;;;;;13.63;35.60;95581.75;5132440;27;20442;-61
2024/01/13 09:05:22;;;;;;;1.60;0.80;;;;;;;13.94;40.00;95571.56;5132580;27;20435;-61
2024/01/13 09:07:51;;;;;;;5.20;1.13;;;;;;;13.59;33.54;95574.59;5132211;27;20446;-61
2024/01/13 09:10:20;;;;;;;6.23;1.60;;;;;;;13.12;37.88;95573.44;5132469;27;20491;-62
2024/01/13 09:12:49;;;;;;;0.73;0.70;;;;;;;13.91;36.53;95570.25;5133208;27;20438;-61
2024/01/13 09:15:17;;;;;;;0.70;0.70;;;;;;;13.22;34.12;95568.03;5133022;27;20438;-61
2024/01/13 09:17:45;;;;;;;2.40;1.43;;;;;;;13.93;33.85;95565.44;5132684;27;20529;-61
2024/01/13 09:20:14;;;;;;;1.50;1.40;;;;;;;14.31;35.44;95530.91;5133201;27;20443;-61
2024/01/13 09:22:43;;;;;;;1.63;1.10;;;;;;;14.22;33.12;95487.28;5132766;27;20445;-61
2024/01/13 09:25:11;;;;;;;1.97;1.57;;;;;;;14.43;33.88;95497.41;5132957;27;20435;-60
2024/01/13 09:27:41;;;;;;;1.87;1.77;;;;;;;14.17;30.85;95548.63;5132105;27;21002;-66
2024/01/13 09:30:11;;;;;;;4.63;1.57;;;;;;;14.53;30.14;95536.47;5131646;27;20443;-63
2024/01/13 09:32:43;;;;;;;2.90;1.03;;;;;;;14.28;31.85;95528.78;5132694;27;20477;-65
2024/01/13 09:35:12;;;;;;;1.07;0.80;;;;;;;14.65;29.99;95512.03;5132528;27;20443;-67
2024/01/13 09:37:41;;;;;;;1.00;0.60;;;;;;;15.00;28.40;95512.25;5132694;27;20953;-67
2024/01/13 09:40:10;;;;;;;0.60;0.50;;;;;;;15.91;28.84;95512.53;5132255;27;20481;-67
2024/01/13 09:42:49;;;;;;;0.80;0.80;;;;;;;15.67;29.24;95502.03;5132791;27;20446;-69
2024/01/13 09:45:20;;;;;;;1.97;1.87;;;;;;;14.99;29.84;95500.00;5132458;27;20423;-68
2024/01/13 09:47:49;;;;;;;1.27;1.10;;;;;;;16.12;29.00;95455.66;5132653;27;20437;-67
2024/01/13 09:50:18;;;;;;;0.90;0.90;;;;;;;15.27;28.70;95434.91;5105755;27;20438;-66
2024/01/13 09:52:48;;;;;;;2.00;1.90;;;;;;;15.27;27.97;95375.38;5131705;27;20474;-65
2024/01/13 09:55:18;;;;;;;4.10;1.00;;;;;;;15.34;27.59;95476.44;5132130;27;20953;-67
2024/01/13 09:57:49;;;;;;;2.57;2.47;;;;;;;14.26;28.78;95490.94;5132628;27;20491;-69
2024/01/13 10:00:18;;;;;;;2.40;1.90;;;;;;;14.04;29.39;95430.19;5132355;27;20474;-66
2024/01/13 10:02:47;;;;;;;0.97;0.97;;;;;;;14.40;28.41;95481.16;5131770;27;20598;-66
2024/01/13 10:05:15;;;;;;;0.90;0.90;;;;;;;15.56;27.85;95476.63;5131858;27;20441;-66
2024/01/13 10:07:52;;;;;;;2.50;2.30;;;;;;;15.35;29.63;95478.03;5131647;27;20431;-67
2024/01/13 10:10:23;;;;;;;3.67;0.87;;;;;;;15.47;28.40;95471.16;5132251;27;20479;-67
2024/01/13 10:12:53;;;;;;;0.87;0.87;;;;;;;15.97;28.25;95468.56;5132099;27;20435;-67
2024/01/13 10:15:22;;;;;;;2.47;0.83;;;;;;;15.64;28.82;95454.53;5131854;27;20867;-68
2024/01/13 10:17:54;;;;;;;0.90;0.90;;;;;;;15.67;28.19;95464.63;5133175;28;20961;-66
2024/01/13 10:20:25;;;;;;;1.13;1.03;;;;;;;16.78;27.46;95459.53;5131684;28;20565;-66
2024/01/13 10:22:53;;;;;;;1.33;1.23;;;;;;;16.62;27.24;95456.44;5124207;28;20522;-68
2024/01/13 10:25:22;;;;;;;2.17;1.03;;;;;;;16.27;27.04;95460.69;5127165;28;20950;-69
2024/01/13 10:27:56;;;;;;;0.93;0.93;;;;;;;15.61;28.25;95461.25;5132441;27;20459;-70
2024/01/13 10:30:25;;;;;;;9.87;1.93;;;;;;;15.43;27.96;95438.06;5132193;27;20441;-69
2024/01/13 10:32:54;;;;;;;3.40;1.30;;;;;;;15.27;27.92;95453.59;5131995;27;20430;-68
2024/01/13 10:35:23;;;;;;;8.00;1.23;;;;;;;16.11;27.70;95440.72;5131192;28;20442;-68
2024/01/13 10:37:52;;;;;;;2.27;2.17;;;;;;;14.58;29.06;95435.81;5131865;27;20881;-67
2024/01/13 10:40:21;;;;;;;1.50;1.40;;;;;;;15.38;28.59;95434.72;5131750;27;20470;-66
2024/01/13 10:42:53;;;;;;;4.30;0.80;;;;;;;15.44;28.13;95386.22;5131748;27;20450;-67
2024/01/13 10:45:25;;;;;;;1.80;1.70;;;;;;;16.37;27.68;95414.19;5131512;27;20441;-67
2024/01/13 10:48:00;;;;;;;4.00;1.10;;;;;;;16.70;26.67;95406.75;5131481;28;21082;-65
2024/01/13 10:50:30;;;;;;;7.60;1.17;;;;;;;16.31;27.46;95394.81;5131362;28;20834;-64
2024/01/13 10:53:12;;;;;;;10.47;1.90;;;;;;;15.17;28.49;95389.69;5131460;28;20519;-62
2024/01/13 10:55:42;;;;;;;2.70;2.50;;;;;;;14.17;29.05;95383.38;5131804;28;20540;-62
2024/01/13 10:58:11;;;;;;;1.37;1.27;;;;;;;14.74;29.46;95377.69;5131411;27;20438;-65
2024/01/13 11:00:41;;;;;;;12.97;2.37;;;;;;;15.53;28.63;95367.66;5131290;28;20566;-63
2024/01/13 11:03:15;;;;;;;2.90;0.80;;;;;;;15.15;29.37;95372.41;5131617;28;20965;-65
2024/01/13 11:05:44;;;;;;;1.60;1.50;;;;;;;13.68;29.80;95371.28;5130634;28;20506;-62
2024/01/13 11:08:14;;;;;;;4.00;1.30;;;;;;;14.11;29.90;95369.34;5131956;28;20438;-62
2024/01/13 11:10:47;;;;;;;1.60;1.17;;;;;;;14.16;30.00;95269.84;5131406;27;20438;-63
2024/01/13 11:13:22;;;;;;;1.17;1.07;;;;;;;14.67;30.03;95360.47;5131666;28;20499;-61
2024/01/13 11:15:58;;;;;;;1.07;1.07;;;;;;;15.12;28.73;95346.28;5132289;27;20430;-61
2024/01/13 11:18:27;;;;;;;2.03;1.93;;;;;;;16.10;27.78;95340.22;5135004;27;20806;-62
2024/01/13 11:21:03;;;;;;;1.53;1.43;;;;;;;15.53;27.73;95341.75;5135202;27;20482;-62
2024/01/13 11:23:45;;;;;;;2.10;1.63;;;;;;;15.32;28.73;95254.28;5134338;27;20470;-61
2024/01/13 11:26:17;;;;;;;2.87;0.90;;;;;;;15.88;27.81;95294.75;5132976;27;20436;-61
2024/01/13 11:28:50;;;;;;;0.60;0.60;;;;;;;16.40;28.60;95288.66;5134667;27;20499;-59
2024/01/13 11:31:33;;;;;;;1.20;1.10;;;;;;;18.05;26.68;95318.34;5134963;27;21018;-60
2024/01/13 11:34:15;;;;;;;1.80;1.67;;;;;;;16.62;27.34;95324.53;5111182;27;20465;-60
2024/01/13 11:36:47;;;;;;;3.97;2.90;;;;;;;14.53;29.57;95333.75;5134019;27;20954;-60
2024/01/13 11:39:18;;;;;;;1.17;1.07;;;;;;;14.96;28.90;95340.44;5134888;27;20462;-61
2024/01/13 11:41:47;;;;;;;1.00;0.73;;;;;;;14.76;28.16;95278.66;5134687;27;20445;-61
2024/01/13 11:44:22;;;;;;;1.53;1.20;;;;;;;17.35;28.08;95316.66;5134855;27;20961;-61
2024/01/13 11:47:01;;;;;;;10.03;0.73;;;;;;;17.89;26.27;95319.91;5134220;27;20860;-60